This is the latest recevied weather packets stored in our database for station/object HA6IFZ-10. If no packets are shown the sender has not sent any weather packets the latest 10 day(s).
| Time | Temp. | Humidity | Pressure | Rain* | Wind** | Luminosity | Snow |
|---|---|---|---|---|---|---|---|
| 1788021192 | 27.78° C | 31% | 1022.5 hPa | - | - | - | - |
| 1788020291 | 27.78° C | 30% | 1022.5 hPa | - | - | - | - |
| 1788019391 | 28.33° C | 30% | 1022.6 hPa | - | - | - | - |
| 1788018490 | 28.33° C | 31% | 1022.6 hPa | - | - | - | - |
| 1788017591 | 28.89° C | 31% | 1022.5 hPa | - | - | - | - |
| 1788016690 | 30° C | 30% | 1022.5 hPa | - | - | - | - |
| 1788015791 | 30° C | 29% | 1022.6 hPa | - | - | - | - |
| 1788014890 | 30° C | 29% | 1022.6 hPa | - | - | - | - |
| 1788013990 | 30° C | 30% | 1022.6 hPa | - | - | - | - |
| 1788013090 | 29.44° C | 32% | 1022.5 hPa | - | - | - | - |
| 1788012190 | 30° C | 32% | 1022.6 hPa | - | - | - | - |
| 1788011291 | 30° C | 32% | 1022.8 hPa | - | - | - | - |
| 1788010390 | 30° C | 33% | 1023 hPa | - | - | - | - |
| 1788009490 | 28.89° C | 36% | 1023.1 hPa | - | - | - | - |
| 1788008590 | 28.33° C | 38% | 1023.1 hPa | - | - | - | - |
| 1788007689 | 28.33° C | 38% | 1023 hPa | - | - | - | - |
| 1788006789 | 28.33° C | 38% | 1023.2 hPa | - | - | - | - |
| 1788005891 | 28.33° C | 38% | 1023.4 hPa | - | - | - | - |
| 1788004989 | 28.33° C | 38% | 1023.2 hPa | - | - | - | - |
| 1788004089 | 28.89° C | 34% | 1023.3 hPa | - | - | - | - |
| 1788003190 | 29.44° C | 33% | 1023.2 hPa | - | - | - | - |
| 1788002289 | 29.44° C | 32% | 1023.1 hPa | - | - | - | - |
| 1788000489 | 30° C | 31% | 1023.2 hPa | - | - | - | - |
| 1787999589 | 29.44° C | 32% | 1023.2 hPa | - | - | - | - |
| 1787998689 | 28.89° C | 33% | 1023.1 hPa | - | - | - | - |
* Rain since midnight (hover to see other rain measurements)
** Current wind speed in m/s (hover to see current wind gust speed)